Flight Track Log - Related Links

Times and Time Zones

All times are in EDT time to prevent confusion due to time zone crossing. See the JAL2579 flight status page for this flight to view local times or setup timezone preferences in your user account.

Time Position Orientation Groundspeed Altitude Reporting Facility
EDT Latitude Longitude Course Direction KTS MPH feet Rate Location/Type
Thu 11:11:15 PM 34.4069 135.2230 221° Southwest  Level Estimated
Thu 11:12:15 PM 34.3254 135.1386 220° Southwest  Level Estimated
Thu 11:13:15 PM 34.2438 135.0543 220° Southwest  Level Estimated
Thu 11:14:15 PM 34.1621 134.9703 220° Southwest  Level Estimated
Thu 11:15:15 PM 34.0795 134.8855 220° Southwest  Level Estimated
Thu 11:16:15 PM 33.9969 134.8009 220° Southwest  Level Estimated
Thu 11:17:15 PM 33.9142 134.7165 220° Southwest  Level Estimated
Thu 11:18:15 PM 33.8315 134.6322 220° Southwest  Level Estimated
Thu 11:19:15 PM 33.7487 134.5481 220° Southwest  Level Estimated
Thu 11:20:15 PM 33.6659 134.4642 220° Southwest  Level Estimated
Thu 11:21:15 PM 33.5829 134.3804 220° Southwest  Level Estimated
Thu 11:22:15 PM 33.5000 134.2968 220° Southwest  Level Estimated
Thu 11:23:15 PM 33.4170 134.2133 220° Southwest  Level Estimated
Thu 11:24:15 PM 33.3347 134.1308 220° Southwest  Level Estimated
Thu 11:25:15 PM 33.2524 134.0485 220° Southwest  Level Estimated
Thu 11:26:15 PM 33.1701 133.9664 220° Southwest  Level Estimated
Thu 11:27:15 PM 33.0877 133.8844 220° Southwest  Level Estimated
Thu 11:28:15 PM 33.0053 133.8026 220° Southwest  Level Estimated
Thu 11:29:15 PM 32.9228 133.7209 220° Southwest  Level Estimated
Thu 11:30:15 PM 32.8402 133.6393 220° Southwest  Level Estimated
Thu 11:31:15 PM 32.7576 133.5580 220° Southwest  Level Estimated
Thu 11:32:15 PM 32.6758 133.4775 220° Southwest  Level Estimated
Thu 11:33:15 PM 32.5939 133.3973 220° Southwest  Level Estimated
Thu 11:34:15 PM 32.5120 133.3172 219° Southwest  Level Estimated
Thu 11:35:15 PM 32.4300 133.2372 219° Southwest  Level Estimated
Thu 11:36:15 PM 32.3480 133.1574 219° Southwest  Level Estimated
Thu 11:37:15 PM 32.2659 133.0777 219° Southwest  Level Estimated
Thu 11:38:15 PM 32.1838 132.9982 219° Southwest  Level Estimated
Thu 11:39:15 PM 32.1016 132.9188 219° Southwest  Level Estimated
Thu 11:40:15 PM 32.0194 132.8395 219° Southwest  Level Estimated
Thu 11:41:15 PM 31.9371 132.7604 219° Southwest  Level Estimated
Thu 11:42:15 PM 31.8556 132.6822 219° Southwest  Level Estimated
Thu 11:43:15 PM 31.7741 132.6042 219° Southwest  Level Estimated
Thu 11:44:15 PM 31.6925 132.5263 219° Southwest  Level Estimated
Thu 11:45:15 PM 31.6109 132.4485 219° Southwest  Level Estimated
Thu 11:46:15 PM 31.5292 132.3709 219° Southwest  Level Estimated
Thu 11:47:15 PM 31.4474 132.2934 219° Southwest  Level Estimated
Thu 11:48:15 PM 31.3657 132.2161 219° Southwest  Level Estimated
Thu 11:49:15 PM 31.2846 132.1396 219° Southwest  Level Estimated
Thu 11:50:15 PM 31.2036 132.0633 219° Southwest  Level Estimated
Thu 11:51:15 PM 31.1225 131.9871 219° Southwest  Level Estimated
Thu 11:52:15 PM 31.0413 131.9110 219° Southwest  Level Estimated
Thu 11:53:15 PM 30.9601 131.8351 219° Southwest  Level Estimated
Thu 11:54:15 PM 30.8789 131.7593 219° Southwest  Level Estimated
Thu 11:55:15 PM 30.7976 131.6836 219° Southwest  Level Estimated
Thu 11:56:15 PM 30.7162 131.6080 219° Southwest  Level Estimated
Thu 11:57:15 PM 30.6349 131.5326 219° Southwest  Level Estimated
Thu 11:58:15 PM 30.5535 131.4573 219° Southwest  Level Estimated
Thu 11:59:15 PM 30.4720 131.3821 218° Southwest  Level Estimated
Fri 12:00:15 AM 30.3905 131.3071 218° Southwest  Level Estimated
Fri 12:01:15 AM 30.3090 131.2322 218° Southwest  Level Estimated
Fri 12:02:15 AM 30.2274 131.1574 218° Southwest  Level Estimated
Fri 12:03:15 AM 30.1457 131.0827 218° Southwest  Level Estimated
Fri 12:04:15 AM 30.0641 131.0081 218° Southwest  Level Estimated
Fri 12:05:15 AM 29.9823 130.9337 218° Southwest  Level Estimated
Fri 12:06:15 AM 29.9006 130.8594 218° Southwest  Level Estimated
Fri 12:07:15 AM 29.8188 130.7852 218° Southwest  Level Estimated
Fri 12:08:15 AM 29.7369 130.7112 218° Southwest  Level Estimated
Fri 12:09:15 AM 29.6551 130.6372 218° Southwest  Level Estimated
Fri 12:10:15 AM 29.5731 130.5634 218° Southwest  Level Estimated
Fri 12:11:15 AM 29.4912 130.4897 218° Southwest  Level Estimated
Fri 12:12:15 AM 29.4092 130.4161 218° Southwest  Level Estimated
Fri 12:13:15 AM 29.3271 130.3427 218° Southwest  Level Estimated
Fri 12:14:15 AM 29.2451 130.2693 218° Southwest  Level Estimated
Fri 12:15:15 AM 29.1629 130.1961 218° Southwest  Level Estimated
Fri 12:16:15 AM 29.0808 130.1230 218° Southwest  Level Estimated
Fri 12:17:15 AM 28.9986 130.0500 218° Southwest  Level Estimated
Fri 12:18:15 AM 28.9163 129.9771 218° Southwest  Level Estimated
Fri 12:19:15 AM 28.8341 129.9043 218° Southwest  Level Estimated
Fri 12:20:15 AM 28.7517 129.8317 218° Southwest  Level Estimated
Fri 12:21:15 AM 28.6694 129.7592 218° Southwest  Level Estimated
Fri 12:22:15 AM 28.5870 129.6867 218° Southwest  Level Estimated
Fri 12:23:15 AM 28.5045 129.6144 218° Southwest  Level Estimated
Fri 12:24:15 AM 28.4221 129.5422 218° Southwest  Level Estimated
Fri 12:25:15 AM 28.3396 129.4702 218° Southwest  Level Estimated
Fri 12:26:15 AM 28.2570 129.3982 217° Southwest  Level Estimated
Fri 12:27:15 AM 28.1744 129.3263 217° Southwest  Level Estimated
Fri 12:28:15 AM 28.0918 129.2546 217° Southwest  Level Estimated
Fri 12:29:15 AM 28.0091 129.1830 217° Southwest  Level Estimated
Fri 12:30:15 AM 27.9264 129.1114 217° Southwest  Level Estimated
Fri 12:31:15 AM 27.8437 129.0400 217° Southwest  Level Estimated
Fri 12:32:15 AM 27.7609 128.9687 217° Southwest  Level Estimated
Fri 12:33:15 AM 27.6781 128.8975 217° Southwest  Level Estimated
Fri 12:34:15 AM 27.5952 128.8264 217° Southwest  Level Estimated
Fri 12:35:15 AM 27.5124 128.7554 217° Southwest  Level Estimated
Fri 12:36:15 AM 27.4294 128.6846 217° Southwest  Level Estimated
Fri 12:37:15 AM 27.3465 128.6138 217° Southwest  Level Estimated
Fri 12:38:15 AM 27.2635 128.5431 217° Southwest  Level Estimated
Fri 12:39:15 AM 27.1805 128.4726 217° Southwest  Level Estimated
Fri 12:40:15 AM 27.0974 128.4021 217° Southwest  Level Estimated
Fri 12:41:15 AM 27.0143 128.3318 217° Southwest  Level Estimated
Fri 12:42:15 AM 26.9312 128.2615 217° Southwest  Level Estimated
Fri 12:43:15 AM 26.8480 128.1914 217° Southwest  Level Estimated
Fri 12:44:15 AM 26.7648 128.1214 217° Southwest  Level Estimated
Fri 12:45:15 AM 26.6816 128.0514 217° Southwest  Level Estimated
Fri 12:46:15 AM 26.5983 127.9816 217° Southwest  Level Estimated
Fri 12:47:15 AM 26.5150 127.9119 217° Southwest  Level Estimated
Fri 12:48:15 AM 26.4317 127.8422 217° Southwest  Level Estimated
Fri 12:49:15 AM 26.3483 127.7727 217° Southwest  Level Estimated
Fri 12:50:15 AM 26.2649 127.7033 217° Southwest  Level Estimated
Fri 12:51:15 AM 26.1815 127.6339 37° Northeast  Level Estimated
Fri 12:52:15 AM 26.2633 127.7019 217° Southwest  Level Estimated
Fri 12:53:15 AM 26.1815 127.6339 37° Northeast  Level Estimated
Fri 12:54:15 AM 26.2633 127.7019 217° Southwest  Level Estimated
Fri 12:55:15 AM 26.1822 127.6346 37° Northeast  Level Estimated
Fri 12:56:15 AM 26.2633 127.7020 217° Southwest  Level Estimated
Fri 12:57:15 AM 26.1822 127.6346 37° Northeast  Level Estimated
Fri 12:58:15 AM 26.2633 127.7020 37° Northeast  Level Estimated

Login

Don't have an account? Register now (free) for customized features, flight alerts, and more!